sensor_id;sensor_type;location;lat;lon;timestamp;P1;durP1;ratioP1;P2;durP2;ratioP2
23260;SDS011;11799;47.740;-3.390;2024-03-02T00:02:13;25.45;;;3.00;;
23260;SDS011;11799;47.740;-3.390;2024-03-02T00:04:44;15.65;;;3.13;;
23260;SDS011;11799;47.740;-3.390;2024-03-02T00:07:10;24.05;;;2.22;;
23260;SDS011;11799;47.740;-3.390;2024-03-02T00:09:39;16.75;;;2.38;;
23260;SDS011;11799;47.740;-3.390;2024-03-02T00:12:05;23.02;;;2.65;;
23260;SDS011;11799;47.740;-3.390;2024-03-02T00:14:31;27.00;;;2.95;;
23260;SDS011;11799;47.740;-3.390;2024-03-02T00:16:57;17.77;;;3.15;;
23260;SDS011;11799;47.740;-3.390;2024-03-02T00:19:22;26.77;;;2.80;;
23260;SDS011;11799;47.740;-3.390;2024-03-02T00:21:48;28.00;;;2.75;;
23260;SDS011;11799;47.740;-3.390;2024-03-02T00:26:59;15.70;;;1.92;;
23260;SDS011;11799;47.740;-3.390;2024-03-02T00:29:24;24.38;;;2.40;;
23260;SDS011;11799;47.740;-3.390;2024-03-02T00:31:50;18.83;;;2.30;;
23260;SDS011;11799;47.740;-3.390;2024-03-02T00:34:17;20.30;;;2.30;;
23260;SDS011;11799;47.740;-3.390;2024-03-02T00:36:42;20.17;;;2.50;;
23260;SDS011;11799;47.740;-3.390;2024-03-02T00:39:08;24.85;;;2.40;;
23260;SDS011;11799;47.740;-3.390;2024-03-02T00:41:33;29.88;;;2.80;;
23260;SDS011;11799;47.740;-3.390;2024-03-02T00:44:01;23.73;;;2.42;;
23260;SDS011;11799;47.740;-3.390;2024-03-02T00:46:38;23.70;;;2.45;;
23260;SDS011;11799;47.740;-3.390;2024-03-02T00:51:36;24.60;;;2.50;;
23260;SDS011;11799;47.740;-3.390;2024-03-02T00:54:03;19.75;;;2.35;;
23260;SDS011;11799;47.740;-3.390;2024-03-02T00:56:30;23.92;;;2.63;;
23260;SDS011;11799;47.740;-3.390;2024-03-02T00:58:57;18.52;;;2.22;;
23260;SDS011;11799;47.740;-3.390;2024-03-02T01:01:23;22.88;;;3.00;;
23260;SDS011;11799;47.740;-3.390;2024-03-02T01:03:49;17.08;;;2.10;;
23260;SDS011;11799;47.740;-3.390;2024-03-02T01:06:15;21.10;;;3.05;;
23260;SDS011;11799;47.740;-3.390;2024-03-02T01:08:41;17.20;;;2.75;;
23260;SDS011;11799;47.740;-3.390;2024-03-02T01:11:07;18.90;;;2.17;;
23260;SDS011;11799;47.740;-3.390;2024-03-02T01:13:32;19.80;;;2.03;;
23260;SDS011;11799;47.740;-3.390;2024-03-02T01:15:58;16.88;;;2.35;;
23260;SDS011;11799;47.740;-3.390;2024-03-02T01:18:24;23.98;;;2.28;;
23260;SDS011;11799;47.740;-3.390;2024-03-02T01:20:50;16.88;;;1.98;;
23260;SDS011;11799;47.740;-3.390;2024-03-02T01:23:21;17.40;;;2.00;;
23260;SDS011;11799;47.740;-3.390;2024-03-02T01:25:47;22.88;;;2.35;;
23260;SDS011;11799;47.740;-3.390;2024-03-02T01:28:13;14.68;;;1.80;;
23260;SDS011;11799;47.740;-3.390;2024-03-02T01:30:39;21.55;;;2.10;;
23260;SDS011;11799;47.740;-3.390;2024-03-02T01:33:05;17.63;;;2.72;;
23260;SDS011;11799;47.740;-3.390;2024-03-02T01:35:32;16.20;;;2.38;;
23260;SDS011;11799;47.740;-3.390;2024-03-02T01:37:57;19.15;;;2.60;;
23260;SDS011;11799;47.740;-3.390;2024-03-02T01:40:23;22.25;;;2.67;;
23260;SDS011;11799;47.740;-3.390;2024-03-02T01:42:52;22.33;;;2.28;;
23260;SDS011;11799;47.740;-3.390;2024-03-02T01:45:23;21.98;;;2.20;;
23260;SDS011;11799;47.740;-3.390;2024-03-02T01:47:49;23.15;;;2.53;;
23260;SDS011;11799;47.740;-3.390;2024-03-02T01:50:15;12.13;;;2.25;;
23260;SDS011;11799;47.740;-3.390;2024-03-02T01:52:42;19.88;;;2.53;;
23260;SDS011;11799;47.740;-3.390;2024-03-02T01:55:09;38.55;;;3.45;;
23260;SDS011;11799;47.740;-3.390;2024-03-02T01:57:37;20.92;;;2.50;;
23260;SDS011;11799;47.740;-3.390;2024-03-02T02:00:03;19.58;;;2.13;;
23260;SDS011;11799;47.740;-3.390;2024-03-02T02:02:37;21.85;;;2.38;;
23260;SDS011;11799;47.740;-3.390;2024-03-02T02:05:02;29.33;;;2.67;;
23260;SDS011;11799;47.740;-3.390;2024-03-02T02:07:29;27.20;;;2.58;;
23260;SDS011;11799;47.740;-3.390;2024-03-02T02:09:54;24.83;;;2.72;;
23260;SDS011;11799;47.740;-3.390;2024-03-02T02:12:20;21.00;;;2.40;;
23260;SDS011;11799;47.740;-3.390;2024-03-02T02:14:49;28.65;;;3.35;;
23260;SDS011;11799;47.740;-3.390;2024-03-02T02:17:15;14.45;;;2.00;;
23260;SDS011;11799;47.740;-3.390;2024-03-02T02:19:41;15.20;;;1.40;;
23260;SDS011;11799;47.740;-3.390;2024-03-02T02:22:07;9.50;;;1.33;;
23260;SDS011;11799;47.740;-3.390;2024-03-02T02:24:33;16.00;;;1.70;;
23260;SDS011;11799;47.740;-3.390;2024-03-02T02:26:59;17.13;;;2.33;;
23260;SDS011;11799;47.740;-3.390;2024-03-02T02:29:25;15.88;;;2.00;;
23260;SDS011;11799;47.740;-3.390;2024-03-02T02:31:50;14.43;;;1.90;;
23260;SDS011;11799;47.740;-3.390;2024-03-02T02:34:16;25.20;;;2.72;;
23260;SDS011;11799;47.740;-3.390;2024-03-02T02:36:41;15.93;;;1.95;;
23260;SDS011;11799;47.740;-3.390;2024-03-02T02:39:09;19.85;;;1.75;;
23260;SDS011;11799;47.740;-3.390;2024-03-02T02:41:38;17.25;;;2.03;;
23260;SDS011;11799;47.740;-3.390;2024-03-02T02:44:04;13.63;;;1.65;;
23260;SDS011;11799;47.740;-3.390;2024-03-02T02:46:30;17.25;;;1.83;;
23260;SDS011;11799;47.740;-3.390;2024-03-02T02:48:56;14.63;;;1.75;;
23260;SDS011;11799;47.740;-3.390;2024-03-02T02:51:21;17.10;;;1.90;;
23260;SDS011;11799;47.740;-3.390;2024-03-02T02:53:47;18.77;;;2.20;;
23260;SDS011;11799;47.740;-3.390;2024-03-02T02:56:12;12.02;;;1.90;;
23260;SDS011;11799;47.740;-3.390;2024-03-02T02:58:39;9.60;;;1.52;;
23260;SDS011;11799;47.740;-3.390;2024-03-02T03:01:05;12.07;;;1.90;;
23260;SDS011;11799;47.740;-3.390;2024-03-02T03:03:31;12.98;;;1.33;;
23260;SDS011;11799;47.740;-3.390;2024-03-02T03:05:57;10.00;;;1.30;;
23260;SDS011;11799;47.740;-3.390;2024-03-02T03:08:22;7.20;;;1.38;;
23260;SDS011;11799;47.740;-3.390;2024-03-02T03:10:48;11.27;;;1.65;;
23260;SDS011;11799;47.740;-3.390;2024-03-02T03:13:14;11.00;;;1.75;;
23260;SDS011;11799;47.740;-3.390;2024-03-02T03:15:40;15.35;;;1.60;;
23260;SDS011;11799;47.740;-3.390;2024-03-02T03:18:05;9.52;;;1.27;;
23260;SDS011;11799;47.740;-3.390;2024-03-02T03:20:32;14.75;;;2.20;;
23260;SDS011;11799;47.740;-3.390;2024-03-02T03:22:59;21.58;;;1.90;;
23260;SDS011;11799;47.740;-3.390;2024-03-02T03:25:25;12.40;;;1.65;;
23260;SDS011;11799;47.740;-3.390;2024-03-02T03:27:50;9.50;;;1.42;;
23260;SDS011;11799;47.740;-3.390;2024-03-02T03:30:19;4.82;;;2.15;;
23260;SDS011;11799;47.740;-3.390;2024-03-02T03:32:44;6.82;;;1.65;;
23260;SDS011;11799;47.740;-3.390;2024-03-02T03:35:10;8.35;;;1.10;;
23260;SDS011;11799;47.740;-3.390;2024-03-02T03:37:37;10.10;;;1.50;;
23260;SDS011;11799;47.740;-3.390;2024-03-02T03:40:03;2.00;;;0.90;;
23260;SDS011;11799;47.740;-3.390;2024-03-02T03:42:38;4.30;;;1.02;;
23260;SDS011;11799;47.740;-3.390;2024-03-02T03:45:04;6.90;;;1.30;;
23260;SDS011;11799;47.740;-3.390;2024-03-02T03:47:31;11.73;;;1.30;;
23260;SDS011;11799;47.740;-3.390;2024-03-02T03:49:56;8.02;;;1.30;;
23260;SDS011;11799;47.740;-3.390;2024-03-02T03:52:23;12.13;;;1.85;;
23260;SDS011;11799;47.740;-3.390;2024-03-02T03:54:48;7.95;;;1.33;;
23260;SDS011;11799;47.740;-3.390;2024-03-02T03:57:14;5.07;;;1.08;;
23260;SDS011;11799;47.740;-3.390;2024-03-02T03:59:40;6.45;;;1.40;;
23260;SDS011;11799;47.740;-3.390;2024-03-02T04:02:05;7.43;;;1.42;;
23260;SDS011;11799;47.740;-3.390;2024-03-02T04:04:31;6.03;;;1.40;;
23260;SDS011;11799;47.740;-3.390;2024-03-02T04:06:56;7.50;;;1.25;;
23260;SDS011;11799;47.740;-3.390;2024-03-02T04:09:22;11.70;;;1.98;;
23260;SDS011;11799;47.740;-3.390;2024-03-02T04:11:47;8.65;;;1.50;;
23260;SDS011;11799;47.740;-3.390;2024-03-02T04:14:13;7.40;;;1.80;;
23260;SDS011;11799;47.740;-3.390;2024-03-02T04:16:38;12.68;;;1.90;;
23260;SDS011;11799;47.740;-3.390;2024-03-02T04:19:04;19.98;;;2.20;;
23260;SDS011;11799;47.740;-3.390;2024-03-02T04:21:30;9.77;;;2.03;;
23260;SDS011;11799;47.740;-3.390;2024-03-02T04:23:56;5.80;;;1.40;;
23260;SDS011;11799;47.740;-3.390;2024-03-02T04:26:23;12.85;;;1.90;;
23260;SDS011;11799;47.740;-3.390;2024-03-02T04:28:50;12.50;;;2.13;;
23260;SDS011;11799;47.740;-3.390;2024-03-02T04:31:19;7.05;;;1.90;;
23260;SDS011;11799;47.740;-3.390;2024-03-02T04:33:45;10.07;;;1.85;;
23260;SDS011;11799;47.740;-3.390;2024-03-02T04:36:10;9.68;;;1.80;;
23260;SDS011;11799;47.740;-3.390;2024-03-02T04:38:37;11.90;;;1.50;;
23260;SDS011;11799;47.740;-3.390;2024-03-02T04:41:03;8.80;;;1.60;;
23260;SDS011;11799;47.740;-3.390;2024-03-02T04:43:31;5.82;;;1.50;;
23260;SDS011;11799;47.740;-3.390;2024-03-02T04:45:57;8.10;;;1.30;;
23260;SDS011;11799;47.740;-3.390;2024-03-02T04:48:23;6.00;;;1.50;;
23260;SDS011;11799;47.740;-3.390;2024-03-02T04:50:49;13.02;;;1.60;;
23260;SDS011;11799;47.740;-3.390;2024-03-02T04:53:14;8.63;;;1.60;;
23260;SDS011;11799;47.740;-3.390;2024-03-02T04:55:40;8.93;;;1.52;;
23260;SDS011;11799;47.740;-3.390;2024-03-02T04:58:05;11.82;;;2.17;;
23260;SDS011;11799;47.740;-3.390;2024-03-02T05:00:32;5.22;;;1.55;;
23260;SDS011;11799;47.740;-3.390;2024-03-02T05:02:58;8.60;;;1.60;;
23260;SDS011;11799;47.740;-3.390;2024-03-02T05:05:23;9.35;;;1.90;;
23260;SDS011;11799;47.740;-3.390;2024-03-02T05:07:49;11.85;;;2.10;;
23260;SDS011;11799;47.740;-3.390;2024-03-02T05:10:14;14.90;;;1.83;;
23260;SDS011;11799;47.740;-3.390;2024-03-02T05:12:40;11.75;;;2.03;;
23260;SDS011;11799;47.740;-3.390;2024-03-02T05:15:09;11.18;;;2.10;;
23260;SDS011;11799;47.740;-3.390;2024-03-02T05:17:40;7.90;;;1.92;;
23260;SDS011;11799;47.740;-3.390;2024-03-02T05:20:10;13.75;;;1.85;;
23260;SDS011;11799;47.740;-3.390;2024-03-02T05:22:36;5.40;;;1.70;;
23260;SDS011;11799;47.740;-3.390;2024-03-02T05:25:02;10.10;;;2.15;;
23260;SDS011;11799;47.740;-3.390;2024-03-02T05:27:29;12.20;;;2.40;;
23260;SDS011;11799;47.740;-3.390;2024-03-02T05:29:55;10.45;;;2.15;;
23260;SDS011;11799;47.740;-3.390;2024-03-02T05:32:21;14.80;;;2.83;;
23260;SDS011;11799;47.740;-3.390;2024-03-02T05:34:46;16.23;;;3.17;;
23260;SDS011;11799;47.740;-3.390;2024-03-02T05:37:12;21.58;;;3.20;;
23260;SDS011;11799;47.740;-3.390;2024-03-02T05:39:38;16.70;;;3.22;;
23260;SDS011;11799;47.740;-3.390;2024-03-02T05:42:03;18.50;;;3.20;;
23260;SDS011;11799;47.740;-3.390;2024-03-02T05:44:29;14.10;;;3.50;;
23260;SDS011;11799;47.740;-3.390;2024-03-02T05:46:55;14.65;;;3.10;;
23260;SDS011;11799;47.740;-3.390;2024-03-02T05:49:20;9.60;;;3.05;;
23260;SDS011;11799;47.740;-3.390;2024-03-02T05:51:46;12.20;;;2.60;;
23260;SDS011;11799;47.740;-3.390;2024-03-02T05:54:12;9.73;;;2.53;;
23260;SDS011;11799;47.740;-3.390;2024-03-02T05:56:37;8.77;;;2.00;;
23260;SDS011;11799;47.740;-3.390;2024-03-02T05:59:03;15.68;;;2.33;;
23260;SDS011;11799;47.740;-3.390;2024-03-02T06:01:44;3.83;;;1.58;;
23260;SDS011;11799;47.740;-3.390;2024-03-02T06:04:17;10.30;;;2.17;;
23260;SDS011;11799;47.740;-3.390;2024-03-02T06:06:42;6.35;;;2.15;;
23260;SDS011;11799;47.740;-3.390;2024-03-02T06:09:08;4.75;;;1.80;;
23260;SDS011;11799;47.740;-3.390;2024-03-02T06:11:37;10.38;;;2.05;;
23260;SDS011;11799;47.740;-3.390;2024-03-02T06:14:03;9.23;;;1.92;;
23260;SDS011;11799;47.740;-3.390;2024-03-02T06:16:29;8.63;;;1.88;;
23260;SDS011;11799;47.740;-3.390;2024-03-02T06:18:55;13.60;;;2.33;;
23260;SDS011;11799;47.740;-3.390;2024-03-02T06:21:25;13.77;;;2.42;;
23260;SDS011;11799;47.740;-3.390;2024-03-02T06:23:52;15.93;;;2.92;;
23260;SDS011;11799;47.740;-3.390;2024-03-02T06:26:18;15.90;;;2.33;;
23260;SDS011;11799;47.740;-3.390;2024-03-02T06:28:43;15.43;;;2.22;;
23260;SDS011;11799;47.740;-3.390;2024-03-02T06:31:09;9.77;;;1.90;;
23260;SDS011;11799;47.740;-3.390;2024-03-02T06:33:35;8.05;;;2.63;;
23260;SDS011;11799;47.740;-3.390;2024-03-02T06:36:01;7.30;;;2.42;;
23260;SDS011;11799;47.740;-3.390;2024-03-02T06:38:26;11.32;;;2.75;;
23260;SDS011;11799;47.740;-3.390;2024-03-02T06:40:52;12.77;;;4.38;;
23260;SDS011;11799;47.740;-3.390;2024-03-02T06:43:18;9.30;;;2.70;;
23260;SDS011;11799;47.740;-3.390;2024-03-02T06:45:48;9.25;;;2.40;;
23260;SDS011;11799;47.740;-3.390;2024-03-02T06:48:17;8.45;;;1.95;;
23260;SDS011;11799;47.740;-3.390;2024-03-02T06:50:48;8.07;;;1.80;;
23260;SDS011;11799;47.740;-3.390;2024-03-02T06:53:15;6.35;;;1.52;;
23260;SDS011;11799;47.740;-3.390;2024-03-02T06:55:45;8.55;;;1.50;;
23260;SDS011;11799;47.740;-3.390;2024-03-02T06:58:11;7.60;;;1.60;;
23260;SDS011;11799;47.740;-3.390;2024-03-02T07:00:37;5.25;;;1.88;;
23260;SDS011;11799;47.740;-3.390;2024-03-02T07:03:02;3.10;;;1.48;;
23260;SDS011;11799;47.740;-3.390;2024-03-02T07:05:28;3.08;;;1.40;;
23260;SDS011;11799;47.740;-3.390;2024-03-02T07:07:53;5.53;;;1.65;;
23260;SDS011;11799;47.740;-3.390;2024-03-02T07:10:19;5.47;;;1.75;;
23260;SDS011;11799;47.740;-3.390;2024-03-02T07:12:44;4.28;;;1.50;;
23260;SDS011;11799;47.740;-3.390;2024-03-02T07:15:10;10.32;;;2.22;;
23260;SDS011;11799;47.740;-3.390;2024-03-02T07:17:54;7.30;;;1.80;;
23260;SDS011;11799;47.740;-3.390;2024-03-02T07:20:20;6.57;;;1.58;;
23260;SDS011;11799;47.740;-3.390;2024-03-02T07:22:45;9.23;;;1.80;;
23260;SDS011;11799;47.740;-3.390;2024-03-02T07:25:11;5.30;;;1.60;;
23260;SDS011;11799;47.740;-3.390;2024-03-02T07:27:37;8.27;;;1.52;;
23260;SDS011;11799;47.740;-3.390;2024-03-02T07:30:03;6.78;;;1.50;;
23260;SDS011;11799;47.740;-3.390;2024-03-02T07:32:29;3.55;;;1.48;;
23260;SDS011;11799;47.740;-3.390;2024-03-02T07:34:55;7.63;;;1.58;;
23260;SDS011;11799;47.740;-3.390;2024-03-02T07:37:21;7.82;;;2.05;;
23260;SDS011;11799;47.740;-3.390;2024-03-02T07:39:47;4.07;;;1.60;;
23260;SDS011;11799;47.740;-3.390;2024-03-02T07:42:13;3.28;;;1.35;;
23260;SDS011;11799;47.740;-3.390;2024-03-02T07:44:38;12.05;;;1.50;;
23260;SDS011;11799;47.740;-3.390;2024-03-02T07:47:04;7.28;;;1.85;;
23260;SDS011;11799;47.740;-3.390;2024-03-02T07:49:30;7.40;;;1.50;;
23260;SDS011;11799;47.740;-3.390;2024-03-02T07:51:55;6.35;;;2.15;;
23260;SDS011;11799;47.740;-3.390;2024-03-02T07:54:21;6.60;;;2.03;;
23260;SDS011;11799;47.740;-3.390;2024-03-02T07:56:46;14.38;;;2.42;;
23260;SDS011;11799;47.740;-3.390;2024-03-02T07:59:12;7.65;;;2.17;;
23260;SDS011;11799;47.740;-3.390;2024-03-02T08:01:38;18.60;;;3.63;;
23260;SDS011;11799;47.740;-3.390;2024-03-02T08:04:03;11.43;;;3.53;;
23260;SDS011;11799;47.740;-3.390;2024-03-02T08:06:42;26.75;;;3.78;;
23260;SDS011;11799;47.740;-3.390;2024-03-02T08:09:09;18.08;;;4.53;;
23260;SDS011;11799;47.740;-3.390;2024-03-02T08:11:35;21.15;;;5.50;;
23260;SDS011;11799;47.740;-3.390;2024-03-02T08:14:01;14.85;;;3.85;;
23260;SDS011;11799;47.740;-3.390;2024-03-02T08:16:26;11.15;;;3.70;;
23260;SDS011;11799;47.740;-3.390;2024-03-02T08:18:52;19.70;;;4.80;;
23260;SDS011;11799;47.740;-3.390;2024-03-02T08:21:18;24.52;;;5.25;;
23260;SDS011;11799;47.740;-3.390;2024-03-02T08:23:44;21.33;;;4.60;;
23260;SDS011;11799;47.740;-3.390;2024-03-02T08:26:10;23.50;;;5.15;;
23260;SDS011;11799;47.740;-3.390;2024-03-02T08:28:36;24.90;;;5.20;;
23260;SDS011;11799;47.740;-3.390;2024-03-02T08:31:02;30.23;;;5.95;;
23260;SDS011;11799;47.740;-3.390;2024-03-02T08:33:29;20.25;;;5.43;;
23260;SDS011;11799;47.740;-3.390;2024-03-02T08:35:54;21.73;;;5.18;;
23260;SDS011;11799;47.740;-3.390;2024-03-02T08:38:21;20.75;;;4.75;;
23260;SDS011;11799;47.740;-3.390;2024-03-02T08:40:46;13.95;;;3.97;;
23260;SDS011;11799;47.740;-3.390;2024-03-02T08:43:12;13.93;;;3.80;;
23260;SDS011;11799;47.740;-3.390;2024-03-02T08:45:38;9.38;;;3.47;;
23260;SDS011;11799;47.740;-3.390;2024-03-02T08:48:05;11.38;;;3.05;;
23260;SDS011;11799;47.740;-3.390;2024-03-02T08:50:33;18.58;;;4.03;;
23260;SDS011;11799;47.740;-3.390;2024-03-02T08:53:00;13.63;;;3.47;;
23260;SDS011;11799;47.740;-3.390;2024-03-02T08:55:26;11.48;;;3.85;;
23260;SDS011;11799;47.740;-3.390;2024-03-02T08:57:51;14.35;;;3.70;;
23260;SDS011;11799;47.740;-3.390;2024-03-02T09:00:18;18.40;;;4.93;;
23260;SDS011;11799;47.740;-3.390;2024-03-02T09:02:44;36.03;;;10.13;;
23260;SDS011;11799;47.740;-3.390;2024-03-02T09:05:10;17.42;;;5.95;;
23260;SDS011;11799;47.740;-3.390;2024-03-02T09:07:36;16.10;;;5.65;;
23260;SDS011;11799;47.740;-3.390;2024-03-02T09:10:07;23.23;;;6.15;;
23260;SDS011;11799;47.740;-3.390;2024-03-02T09:12:33;30.38;;;11.57;;
23260;SDS011;11799;47.740;-3.390;2024-03-02T09:14:59;22.02;;;5.72;;
23260;SDS011;11799;47.740;-3.390;2024-03-02T09:17:26;18.08;;;6.50;;
23260;SDS011;11799;47.740;-3.390;2024-03-02T09:19:51;22.77;;;6.57;;
23260;SDS011;11799;47.740;-3.390;2024-03-02T09:22:20;18.77;;;7.03;;
23260;SDS011;11799;47.740;-3.390;2024-03-02T09:24:46;23.25;;;6.43;;
23260;SDS011;11799;47.740;-3.390;2024-03-02T09:27:11;21.15;;;5.07;;
23260;SDS011;11799;47.740;-3.390;2024-03-02T09:29:37;25.70;;;5.75;;
23260;SDS011;11799;47.740;-3.390;2024-03-02T09:32:03;17.15;;;4.50;;
23260;SDS011;11799;47.740;-3.390;2024-03-02T09:34:31;15.55;;;3.70;;
23260;SDS011;11799;47.740;-3.390;2024-03-02T09:36:56;16.70;;;3.97;;
23260;SDS011;11799;47.740;-3.390;2024-03-02T09:39:22;9.65;;;3.10;;
23260;SDS011;11799;47.740;-3.390;2024-03-02T09:41:48;17.23;;;3.13;;
23260;SDS011;11799;47.740;-3.390;2024-03-02T09:44:13;12.15;;;3.67;;
23260;SDS011;11799;47.740;-3.390;2024-03-02T09:46:39;17.42;;;4.18;;
23260;SDS011;11799;47.740;-3.390;2024-03-02T09:49:05;20.63;;;4.60;;
23260;SDS011;11799;47.740;-3.390;2024-03-02T09:51:31;27.10;;;5.97;;
23260;SDS011;11799;47.740;-3.390;2024-03-02T09:53:57;16.48;;;4.90;;
23260;SDS011;11799;47.740;-3.390;2024-03-02T09:56:22;20.83;;;5.25;;
23260;SDS011;11799;47.740;-3.390;2024-03-02T09:58:48;17.95;;;5.22;;
23260;SDS011;11799;47.740;-3.390;2024-03-02T10:01:14;11.90;;;4.53;;
23260;SDS011;11799;47.740;-3.390;2024-03-02T10:03:39;14.73;;;4.82;;
23260;SDS011;11799;47.740;-3.390;2024-03-02T10:06:20;14.75;;;5.35;;
23260;SDS011;11799;47.740;-3.390;2024-03-02T10:08:50;10.45;;;3.97;;
23260;SDS011;11799;47.740;-3.390;2024-03-02T10:11:37;16.75;;;4.07;;
23260;SDS011;11799;47.740;-3.390;2024-03-02T10:19:23;15.70;;;3.60;;
23260;SDS011;11799;47.740;-3.390;2024-03-02T10:21:50;17.38;;;3.00;;
23260;SDS011;11799;47.740;-3.390;2024-03-02T10:24:20;10.60;;;2.70;;
23260;SDS011;11799;47.740;-3.390;2024-03-02T10:26:46;12.23;;;2.80;;
23260;SDS011;11799;47.740;-3.390;2024-03-02T10:29:12;10.60;;;2.95;;
23260;SDS011;11799;47.740;-3.390;2024-03-02T10:31:38;10.07;;;2.47;;
23260;SDS011;11799;47.740;-3.390;2024-03-02T10:34:05;7.43;;;2.67;;
23260;SDS011;11799;47.740;-3.390;2024-03-02T10:36:32;10.35;;;2.47;;
23260;SDS011;11799;47.740;-3.390;2024-03-02T10:39:01;14.15;;;2.90;;
23260;SDS011;11799;47.740;-3.390;2024-03-02T10:41:29;8.53;;;2.40;;
23260;SDS011;11799;47.740;-3.390;2024-03-02T10:46:27;6.05;;;2.13;;
23260;SDS011;11799;47.740;-3.390;2024-03-02T10:48:55;11.80;;;1.98;;
23260;SDS011;11799;47.740;-3.390;2024-03-02T10:51:24;14.35;;;2.70;;
23260;SDS011;11799;47.740;-3.390;2024-03-02T10:53:51;8.45;;;2.42;;
23260;SDS011;11799;47.740;-3.390;2024-03-02T10:56:21;7.85;;;2.50;;
23260;SDS011;11799;47.740;-3.390;2024-03-02T10:58:53;11.73;;;2.55;;
23260;SDS011;11799;47.740;-3.390;2024-03-02T11:01:24;13.50;;;2.63;;
23260;SDS011;11799;47.740;-3.390;2024-03-02T11:03:50;13.45;;;2.83;;
23260;SDS011;11799;47.740;-3.390;2024-03-02T11:06:17;10.35;;;3.28;;
23260;SDS011;11799;47.740;-3.390;2024-03-02T11:08:43;10.98;;;3.10;;
23260;SDS011;11799;47.740;-3.390;2024-03-02T11:11:15;9.73;;;3.03;;
23260;SDS011;11799;47.740;-3.390;2024-03-02T11:13:49;12.32;;;3.50;;
23260;SDS011;11799;47.740;-3.390;2024-03-02T11:16:22;11.65;;;3.05;;
23260;SDS011;11799;47.740;-3.390;2024-03-02T11:19:01;8.80;;;3.22;;
23260;SDS011;11799;47.740;-3.390;2024-03-02T11:21:30;8.27;;;2.70;;
23260;SDS011;11799;47.740;-3.390;2024-03-02T11:23:58;13.55;;;3.58;;
23260;SDS011;11799;47.740;-3.390;2024-03-02T11:26:23;5.50;;;2.45;;
23260;SDS011;11799;47.740;-3.390;2024-03-02T11:28:49;8.05;;;2.60;;
23260;SDS011;11799;47.740;-3.390;2024-03-02T11:31:15;10.45;;;2.80;;
23260;SDS011;11799;47.740;-3.390;2024-03-02T11:33:41;18.83;;;3.85;;
23260;SDS011;11799;47.740;-3.390;2024-03-02T11:36:06;10.30;;;3.40;;
23260;SDS011;11799;47.740;-3.390;2024-03-02T11:38:33;8.55;;;3.30;;
23260;SDS011;11799;47.740;-3.390;2024-03-02T11:41:00;10.50;;;3.25;;
23260;SDS011;11799;47.740;-3.390;2024-03-02T11:43:28;10.23;;;3.03;;
23260;SDS011;11799;47.740;-3.390;2024-03-02T11:45:58;10.77;;;2.92;;
23260;SDS011;11799;47.740;-3.390;2024-03-02T11:48:32;9.52;;;3.40;;
23260;SDS011;11799;47.740;-3.390;2024-03-02T11:51:00;14.68;;;3.13;;
23260;SDS011;11799;47.740;-3.390;2024-03-02T11:53:26;14.73;;;4.72;;
23260;SDS011;11799;47.740;-3.390;2024-03-02T11:55:57;13.57;;;2.90;;
23260;SDS011;11799;47.740;-3.390;2024-03-02T11:58:24;9.98;;;2.20;;
23260;SDS011;11799;47.740;-3.390;2024-03-02T12:00:52;7.20;;;2.30;;
23260;SDS011;11799;47.740;-3.390;2024-03-02T12:03:19;4.97;;;1.90;;
23260;SDS011;11799;47.740;-3.390;2024-03-02T12:05:52;5.77;;;2.37;;
23260;SDS011;11799;47.740;-3.390;2024-03-02T12:08:18;7.93;;;2.80;;
23260;SDS011;11799;47.740;-3.390;2024-03-02T12:10:55;8.50;;;1.77;;
23260;SDS011;11799;47.740;-3.390;2024-03-02T12:13:21;5.55;;;1.75;;
23260;SDS011;11799;47.740;-3.390;2024-03-02T12:15:47;8.60;;;3.05;;
23260;SDS011;11799;47.740;-3.390;2024-03-02T12:20:43;5.85;;;2.05;;
23260;SDS011;11799;47.740;-3.390;2024-03-02T12:23:09;3.75;;;1.73;;
23260;SDS011;11799;47.740;-3.390;2024-03-02T12:25:35;11.25;;;2.35;;
23260;SDS011;11799;47.740;-3.390;2024-03-02T12:28:01;7.70;;;2.15;;
23260;SDS011;11799;47.740;-3.390;2024-03-02T12:30:29;5.75;;;1.60;;
23260;SDS011;11799;47.740;-3.390;2024-03-02T12:32:57;4.07;;;1.50;;
23260;SDS011;11799;47.740;-3.390;2024-03-02T12:35:24;6.82;;;2.08;;
23260;SDS011;11799;47.740;-3.390;2024-03-02T12:37:51;6.50;;;1.90;;
23260;SDS011;11799;47.740;-3.390;2024-03-02T12:40:17;8.32;;;1.80;;
23260;SDS011;11799;47.740;-3.390;2024-03-02T12:42:45;7.97;;;2.67;;
23260;SDS011;11799;47.740;-3.390;2024-03-02T12:45:12;19.67;;;5.45;;
23260;SDS011;11799;47.740;-3.390;2024-03-02T12:47:42;38.38;;;11.23;;
23260;SDS011;11799;47.740;-3.390;2024-03-02T12:50:08;32.45;;;10.50;;
23260;SDS011;11799;47.740;-3.390;2024-03-02T12:52:35;15.57;;;5.05;;
23260;SDS011;11799;47.740;-3.390;2024-03-02T12:55:01;14.80;;;4.40;;
23260;SDS011;11799;47.740;-3.390;2024-03-02T12:57:30;10.82;;;4.97;;
23260;SDS011;11799;47.740;-3.390;2024-03-02T12:59:58;22.73;;;8.02;;
23260;SDS011;11799;47.740;-3.390;2024-03-02T13:02:27;17.52;;;5.70;;
23260;SDS011;11799;47.740;-3.390;2024-03-02T13:07:20;16.42;;;4.70;;
23260;SDS011;11799;47.740;-3.390;2024-03-02T13:09:48;21.20;;;5.90;;
23260;SDS011;11799;47.740;-3.390;2024-03-02T13:12:15;16.58;;;5.53;;
23260;SDS011;11799;47.740;-3.390;2024-03-02T13:14:41;12.15;;;4.60;;
23260;SDS011;11799;47.740;-3.390;2024-03-02T13:17:08;12.35;;;4.65;;
23260;SDS011;11799;47.740;-3.390;2024-03-02T13:19:43;11.10;;;4.47;;
23260;SDS011;11799;47.740;-3.390;2024-03-02T13:22:15;12.13;;;4.60;;
23260;SDS011;11799;47.740;-3.390;2024-03-02T13:24:41;12.68;;;4.47;;
23260;SDS011;11799;47.740;-3.390;2024-03-02T13:27:08;14.25;;;4.30;;
23260;SDS011;11799;47.740;-3.390;2024-03-02T13:29:33;9.68;;;3.45;;
23260;SDS011;11799;47.740;-3.390;2024-03-02T13:31:59;10.93;;;3.78;;
23260;SDS011;11799;47.740;-3.390;2024-03-02T13:34:24;8.27;;;3.30;;
23260;SDS011;11799;47.740;-3.390;2024-03-02T13:36:50;11.02;;;3.13;;
23260;SDS011;11799;47.740;-3.390;2024-03-02T13:39:15;8.95;;;2.60;;
23260;SDS011;11799;47.740;-3.390;2024-03-02T13:41:41;7.03;;;3.40;;
23260;SDS011;11799;47.740;-3.390;2024-03-02T13:44:07;11.73;;;3.85;;
23260;SDS011;11799;47.740;-3.390;2024-03-02T13:46:33;12.27;;;3.20;;
23260;SDS011;11799;47.740;-3.390;2024-03-02T13:48:58;19.45;;;5.55;;
23260;SDS011;11799;47.740;-3.390;2024-03-02T13:51:24;13.90;;;3.75;;
23260;SDS011;11799;47.740;-3.390;2024-03-02T13:53:50;10.07;;;3.30;;
23260;SDS011;11799;47.740;-3.390;2024-03-02T13:56:16;11.27;;;3.22;;
23260;SDS011;11799;47.740;-3.390;2024-03-02T13:58:42;11.55;;;3.70;;
23260;SDS011;11799;47.740;-3.390;2024-03-02T14:01:09;8.93;;;3.90;;
23260;SDS011;11799;47.740;-3.390;2024-03-02T14:03:34;15.38;;;4.03;;
23260;SDS011;11799;47.740;-3.390;2024-03-02T14:06:00;17.02;;;5.78;;
23260;SDS011;11799;47.740;-3.390;2024-03-02T14:08:26;12.82;;;3.78;;
23260;SDS011;11799;47.740;-3.390;2024-03-02T14:10:52;10.68;;;4.35;;
23260;SDS011;11799;47.740;-3.390;2024-03-02T14:13:17;14.35;;;3.85;;
23260;SDS011;11799;47.740;-3.390;2024-03-02T14:15:43;4.93;;;2.83;;
23260;SDS011;11799;47.740;-3.390;2024-03-02T14:18:08;7.32;;;3.80;;
23260;SDS011;11799;47.740;-3.390;2024-03-02T14:20:36;11.70;;;3.63;;
23260;SDS011;11799;47.740;-3.390;2024-03-02T14:23:03;6.60;;;3.05;;
23260;SDS011;11799;47.740;-3.390;2024-03-02T14:25:29;10.98;;;3.05;;
23260;SDS011;11799;47.740;-3.390;2024-03-02T14:30:24;9.75;;;3.05;;
23260;SDS011;11799;47.740;-3.390;2024-03-02T14:32:50;10.32;;;2.80;;
23260;SDS011;11799;47.740;-3.390;2024-03-02T14:35:16;9.25;;;2.70;;
23260;SDS011;11799;47.740;-3.390;2024-03-02T14:37:41;10.48;;;3.38;;
23260;SDS011;11799;47.740;-3.390;2024-03-02T14:40:07;16.90;;;3.80;;
23260;SDS011;11799;47.740;-3.390;2024-03-02T14:42:34;17.92;;;5.15;;
23260;SDS011;11799;47.740;-3.390;2024-03-02T14:45:00;22.48;;;5.47;;